Time;durP1;ratioP1;P1;durP2;ratioP2;P2;SDS_P1;SDS_P2;PMS_P1;PMS_P2;Temp;Humidity;BMP_temperature;BMP_pressure;BME280_temperature;BME280_humidity;BME280_pressure;Samples;Min_cycle;Max_cycle;Signal;HPM_P1;HPM_P2
2021/03/23 00:00:49;;;;;;;1.75;0.95;;;23.40;40.20;;;;;;5070890;28;20052;-39
2021/03/23 00:03:39;;;;;;;2.17;1.40;;;23.40;40.20;;;;;;5057511;28;24032;-39
2021/03/23 00:06:08;;;;;;;1.70;1.20;;;23.40;40.30;;;;;;5073708;28;20045;-41
2021/03/23 00:08:37;;;;;;;1.65;1.00;;;23.40;40.20;;;;;;5071277;28;20056;-39
2021/03/23 00:11:20;;;;;;;1.63;1.00;;;23.40;40.20;;;;;;5071922;28;20048;-40
2021/03/23 00:13:49;;;;;;;2.10;1.20;;;23.40;40.20;;;;;;5072294;28;20110;-40
2021/03/23 00:16:18;;;;;;;2.08;1.33;;;23.40;40.20;;;;;;5071635;28;20045;-40
2021/03/23 00:18:46;;;;;;;1.85;1.23;;;23.40;40.20;;;;;;5070961;28;20048;-40
2021/03/23 00:21:13;;;;;;;2.67;1.23;;;23.40;40.20;;;;;;5070966;28;20401;-40
2021/03/23 00:23:41;;;;;;;1.67;1.20;;;23.40;40.30;;;;;;5072303;28;20068;-39
2021/03/23 00:26:09;;;;;;;2.15;1.40;;;23.30;40.20;;;;;;5072080;28;20055;-40
2021/03/23 00:28:36;;;;;;;1.67;1.10;;;23.30;40.20;;;;;;5070355;28;20526;-39
2021/03/23 00:31:03;;;;;;;2.30;1.25;;;23.30;40.10;;;;;;5068713;28;20040;-39
2021/03/23 00:33:31;;;;;;;2.42;1.35;;;23.40;40.30;;;;;;5071842;28;20056;-40
2021/03/23 00:36:01;;;;;;;1.75;1.30;;;23.30;40.10;;;;;;5070370;28;20044;-39
2021/03/23 00:38:30;;;;;;;2.65;1.20;;;23.30;40.10;;;;;;5071628;28;20052;-39
2021/03/23 00:40:57;;;;;;;1.65;1.20;;;23.40;40.30;;;;;;5072164;28;20044;-40
2021/03/23 00:43:24;;;;;;;2.15;1.40;;;23.30;40.10;;;;;;5071938;28;20075;-39
2021/03/23 00:45:50;;;;;;;1.08;0.98;;;23.40;40.30;;;;;;5071884;28;20075;-39
2021/03/23 00:48:18;;;;;;;2.10;1.33;;;23.30;40.20;;;;;;5070588;28;20061;-39
2021/03/23 00:50:45;;;;;;;1.40;1.20;;;23.30;40.20;;;;;;5070719;28;20049;-39
2021/03/23 00:53:12;;;;;;;2.65;1.40;;;23.40;40.30;;;;;;5070883;28;20059;-41
2021/03/23 00:55:39;;;;;;;3.10;1.40;;;23.30;40.20;;;;;;5071725;28;20048;-39
2021/03/23 00:58:06;;;;;;;1.83;1.23;;;23.40;40.30;;;;;;5070467;28;20040;-39
2021/03/23 01:00:33;;;;;;;1.50;1.00;;;23.40;40.30;;;;;;5071455;28;20052;-43
2021/03/23 01:03:00;;;;;;;2.03;1.15;;;23.30;40.20;;;;;;5070293;28;20072;-39
2021/03/23 01:05:29;;;;;;;1.60;1.20;;;23.30;40.20;;;;;;5071892;28;20040;-39
2021/03/23 01:07:56;;;;;;;1.63;1.05;;;23.40;40.30;;;;;;5071255;28;20044;-40
2021/03/23 01:10:25;;;;;;;1.45;1.00;;;23.30;40.20;;;;;;5071715;28;20123;-39
2021/03/23 01:12:53;;;;;;;2.03;1.40;;;23.30;40.20;;;;;;5084736;28;20056;-40
2021/03/23 01:15:24;;;;;;;1.80;1.10;;;23.30;40.20;;;;;;5072541;28;20041;-41
2021/03/23 01:17:51;;;;;;;3.03;1.20;;;23.30;40.10;;;;;;5075178;28;20431;-40
2021/03/23 01:20:20;;;;;;;1.38;1.10;;;23.30;40.20;;;;;;5074011;28;20040;-40
2021/03/23 01:22:47;;;;;;;1.77;1.20;;;23.30;40.20;;;;;;5074174;28;20094;-40
2021/03/23 01:25:15;;;;;;;1.60;1.02;;;23.30;40.20;;;;;;5075405;28;20106;-40
2021/03/23 01:27:42;;;;;;;2.13;1.23;;;23.30;40.20;;;;;;5076190;28;20049;-39
2021/03/23 01:30:10;;;;;;;1.55;1.17;;;23.30;40.20;;;;;;5073783;28;20419;-39
2021/03/23 01:32:38;;;;;;;2.05;1.15;;;23.30;40.20;;;;;;5072273;28;20127;-39
2021/03/23 01:35:05;;;;;;;1.80;1.30;;;23.30;40.20;;;;;;5074408;28;20102;-40
2021/03/23 01:37:32;;;;;;;1.40;1.20;;;23.30;40.20;;;;;;5075054;28;20052;-39
2021/03/23 01:39:59;;;;;;;1.30;1.00;;;23.30;40.20;;;;;;5075183;28;20246;-39
2021/03/23 01:42:45;;;;;;;1.95;1.33;;;23.30;40.20;;;;;;5075060;28;20049;-39
2021/03/23 01:45:30;;;;;;;1.83;1.15;;;23.30;40.20;;;;;;5072432;28;20044;-39
2021/03/23 01:47:59;;;;;;;1.85;1.10;;;23.30;40.20;;;;;;5072533;28;20116;-39
2021/03/23 01:50:27;;;;;;;1.75;1.10;;;23.30;40.20;;;;;;5073107;28;20044;-39
2021/03/23 01:53:34;;;;;;;1.90;1.40;;;23.30;40.20;;;;;;5072261;28;20048;-40
2021/03/23 01:56:01;;;;;;;1.60;1.23;;;23.30;40.20;;;;;;5073524;28;20404;-39
2021/03/23 01:58:30;;;;;;;1.70;1.23;;;23.30;40.20;;;;;;5073385;28;20052;-39
2021/03/23 02:00:57;;;;;;;1.85;1.30;;;23.30;40.20;;;;;;5073463;28;20098;-39
2021/03/23 02:03:24;;;;;;;1.70;1.20;;;23.20;40.10;;;;;;5073288;28;20049;-39
2021/03/23 02:05:57;;;;;;;2.00;1.40;;;23.20;40.10;;;;;;5077921;28;20048;-39
2021/03/23 02:08:24;;;;;;;2.40;1.23;;;23.20;40.10;;;;;;5084012;28;20393;-40
2021/03/23 02:10:54;;;;;;;1.83;1.10;;;23.20;40.10;;;;;;5072960;28;20426;-39
2021/03/23 02:13:21;;;;;;;2.03;1.20;;;23.20;40.10;;;;;;5073201;28;20052;-39
2021/03/23 02:15:48;;;;;;;2.17;1.35;;;23.20;40.10;;;;;;5074063;28;20048;-39
2021/03/23 02:18:20;;;;;;;4.10;1.50;;;23.20;40.10;;;;;;5073571;28;20049;-40
2021/03/23 02:21:10;;;;;;;1.70;1.30;;;23.30;40.20;;;;;;5074420;28;20052;-42
2021/03/23 02:23:44;;;;;;;1.73;0.95;;;23.20;40.10;;;;;;5054757;28;20124;-39
2021/03/23 02:26:17;;;;;;;1.75;1.20;;;23.30;40.20;;;;;;5073539;28;20412;-39
2021/03/23 02:28:52;;;;;;;1.60;1.10;;;23.20;40.10;;;;;;5074124;28;20523;-39
2021/03/23 02:31:25;;;;;;;1.65;1.00;;;23.20;40.10;;;;;;5071738;28;20282;-40
2021/03/23 02:33:53;;;;;;;1.58;1.20;;;23.20;40.10;;;;;;5071976;28;20132;-39
2021/03/23 02:36:30;;;;;;;2.75;1.42;;;23.20;40.10;;;;;;5072744;28;20045;-39
2021/03/23 02:38:59;;;;;;;1.33;1.08;;;23.20;40.10;;;;;;5072824;28;20424;-39
2021/03/23 02:41:26;;;;;;;2.33;1.60;;;23.20;40.10;;;;;;5073012;28;20068;-39
2021/03/23 02:43:54;;;;;;;2.70;1.02;;;23.20;40.10;;;;;;5073635;28;20456;-39
2021/03/23 02:46:21;;;;;;;1.27;1.02;;;23.20;40.10;;;;;;5072308;28;20044;-41
2021/03/23 02:48:49;;;;;;;2.13;1.10;;;23.20;40.10;;;;;;5073469;28;20049;-43
2021/03/23 02:51:17;;;;;;;1.42;0.80;;;23.20;40.10;;;;;;5073867;28;20055;-39
2021/03/23 02:53:47;;;;;;;1.08;0.80;;;23.20;40.10;;;;;;5073701;28;20421;-42
2021/03/23 02:56:15;;;;;;;1.35;1.00;;;23.20;40.10;;;;;;5071068;28;20489;-39
2021/03/23 02:58:42;;;;;;;1.48;1.00;;;23.20;40.10;;;;;;5072598;28;20041;-39
2021/03/23 03:01:09;;;;;;;1.77;1.10;;;23.20;40.10;;;;;;5072414;28;20049;-39
2021/03/23 03:03:37;;;;;;;2.60;1.55;;;23.20;40.10;;;;;;5073575;28;20389;-41
2021/03/23 03:06:06;;;;;;;2.38;0.93;;;23.20;40.10;;;;;;5078895;28;20449;-39
2021/03/23 03:08:33;;;;;;;2.38;1.20;;;23.20;40.10;;;;;;5075223;28;20052;-39
2021/03/23 03:11:00;;;;;;;2.33;1.40;;;23.20;40.10;;;;;;5073334;28;20071;-40
2021/03/23 03:13:32;;;;;;;1.20;1.10;;;23.20;40.10;;;;;;5072222;28;20044;-39
2021/03/23 03:16:00;;;;;;;1.40;1.10;;;23.20;40.10;;;;;;5072038;28;20049;-39
2021/03/23 03:18:27;;;;;;;1.80;1.00;;;23.20;40.10;;;;;;5071703;28;20055;-39
2021/03/23 03:20:56;;;;;;;1.35;1.08;;;23.20;40.10;;;;;;5072075;28;20052;-40
2021/03/23 03:23:23;;;;;;;1.92;1.20;;;23.20;40.10;;;;;;5071659;28;20044;-39
2021/03/23 03:25:51;;;;;;;2.13;1.10;;;23.20;40.10;;;;;;5073515;28;20052;-39
2021/03/23 03:28:19;;;;;;;2.00;1.25;;;23.20;40.10;;;;;;5074041;28;20056;-39
2021/03/23 03:30:46;;;;;;;1.85;1.10;;;23.20;40.10;;;;;;5071068;28;20044;-40
2021/03/23 03:33:18;;;;;;;2.03;1.15;;;23.20;40.10;;;;;;5072513;28;20047;-40
2021/03/23 03:35:46;;;;;;;1.50;0.93;;;23.10;40.10;;;;;;5072395;28;20098;-40
2021/03/23 03:38:15;;;;;;;2.15;1.25;;;23.20;40.10;;;;;;5071869;28;20051;-40
2021/03/23 03:40:46;;;;;;;1.30;0.98;;;23.10;40.10;;;;;;5072697;28;20044;-40
2021/03/23 03:43:15;;;;;;;2.47;1.40;;;23.20;40.10;;;;;;5071151;28;20075;-40
2021/03/23 03:45:42;;;;;;;1.75;1.20;;;23.10;40.10;;;;;;5069984;28;20044;-40
2021/03/23 03:48:09;;;;;;;2.22;1.33;;;23.10;40.10;;;;;;5072642;28;20119;-40
2021/03/23 03:50:36;;;;;;;1.35;1.00;;;23.10;40.10;;;;;;5071537;28;20052;-39
2021/03/23 03:53:03;;;;;;;1.17;0.95;;;23.20;40.10;;;;;;5072463;28;20322;-41
2021/03/23 03:55:34;;;;;;;2.05;1.23;;;23.10;40.10;;;;;;5072292;28;20040;-39
2021/03/23 03:58:01;;;;;;;1.40;1.30;;;23.10;40.10;;;;;;5072085;28;20048;-40
2021/03/23 04:00:31;;;;;;;2.80;1.08;;;23.10;40.10;;;;;;5072024;28;20047;-40
2021/03/23 04:02:59;;;;;;;2.75;1.27;;;23.10;40.00;;;;;;5070588;28;20072;-39
2021/03/23 04:05:29;;;;;;;1.88;1.00;;;23.10;40.10;;;;;;5073553;28;20056;-39
2021/03/23 04:07:57;;;;;;;1.30;1.00;;;23.10;40.10;;;;;;5075389;28;20051;-39
2021/03/23 04:10:24;;;;;;;1.55;1.10;;;23.10;40.10;;;;;;5072210;28;20055;-39
2021/03/23 04:12:52;;;;;;;2.58;1.25;;;23.10;40.10;;;;;;5069810;28;20449;-40
2021/03/23 04:15:28;;;;;;;1.73;1.00;;;23.10;40.10;;;;;;5070647;28;20044;-39
2021/03/23 04:17:55;;;;;;;1.98;1.23;;;23.10;40.10;;;;;;5070956;28;20044;-41
2021/03/23 04:20:24;;;;;;;2.22;1.33;;;23.10;40.10;;;;;;5071662;28;20043;-42
2021/03/23 04:22:51;;;;;;;2.05;1.20;;;23.10;40.10;;;;;;5070842;28;20051;-41
2021/03/23 04:25:20;;;;;;;2.00;1.20;;;23.10;40.10;;;;;;5072483;28;20048;-40
2021/03/23 04:27:47;;;;;;;1.73;1.30;;;23.10;40.10;;;;;;5071800;28;20129;-41
2021/03/23 04:30:15;;;;;;;3.00;1.25;;;23.10;40.10;;;;;;5071085;28;20097;-41
2021/03/23 04:32:42;;;;;;;1.75;1.17;;;23.10;40.10;;;;;;5069398;28;20052;-40
2021/03/23 04:35:17;;;;;;;2.00;1.30;;;23.00;40.00;;;;;;5070708;28;20056;-40
2021/03/23 04:37:43;;;;;;;2.10;1.25;;;23.10;40.10;;;;;;5070275;28;20044;-42
2021/03/23 04:40:11;;;;;;;2.03;0.98;;;23.10;40.40;;;;;;5070162;28;20044;-41
2021/03/23 04:42:37;;;;;;;1.40;1.10;;;23.10;40.10;;;;;;5070186;28;20040;-40
2021/03/23 04:45:05;;;;;;;1.65;1.05;;;23.10;40.10;;;;;;5070775;28;20052;-40
2021/03/23 04:47:32;;;;;;;1.50;1.05;;;23.10;40.10;;;;;;5071014;28;20044;-45
2021/03/23 04:49:58;;;;;;;1.30;1.00;;;23.10;40.10;;;;;;5071615;28;20132;-40
2021/03/23 04:52:25;;;;;;;1.60;1.23;;;23.00;40.00;;;;;;5071745;28;20415;-40
2021/03/23 04:54:52;;;;;;;1.90;1.17;;;23.00;40.00;;;;;;5070794;28;20493;-39
2021/03/23 04:57:18;;;;;;;1.95;1.40;;;23.00;40.00;;;;;;5071636;28;20052;-40
2021/03/23 04:59:45;;;;;;;2.03;1.00;;;23.00;40.00;;;;;;5070436;28;20052;-40
2021/03/23 05:02:11;;;;;;;1.75;1.20;;;23.00;39.90;;;;;;5071861;28;20098;-42
2021/03/23 05:04:38;;;;;;;2.35;1.20;;;23.00;40.00;;;;;;5071209;28;20582;-40
2021/03/23 05:07:23;;;;;;;1.98;1.25;;;23.10;40.10;;;;;;5070340;28;20059;-39
2021/03/23 05:09:50;;;;;;;1.58;0.95;;;23.10;40.10;;;;;;5069993;28;20466;-42
2021/03/23 05:12:17;;;;;;;1.90;1.10;;;23.00;40.00;;;;;;5072623;28;20053;-40
2021/03/23 05:14:47;;;;;;;3.03;1.30;;;23.00;40.00;;;;;;5069923;28;20058;-41
2021/03/23 05:17:14;;;;;;;1.63;1.00;;;23.00;39.90;;;;;;5069858;28;20435;-40
2021/03/23 05:19:42;;;;;;;2.00;1.23;;;23.00;39.90;;;;;;5069808;28;20045;-39
2021/03/23 05:22:08;;;;;;;1.05;0.80;;;23.00;40.00;;;;;;5071462;28;20158;-39
2021/03/23 05:24:35;;;;;;;2.10;1.30;;;23.00;39.90;;;;;;5072738;28;20068;-40
2021/03/23 05:27:03;;;;;;;1.88;1.23;;;23.00;40.00;;;;;;5071534;28;20056;-40
2021/03/23 05:29:30;;;;;;;1.90;1.00;;;23.00;39.90;;;;;;5070636;28;20052;-39
2021/03/23 05:31:57;;;;;;;1.45;1.00;;;23.00;40.00;;;;;;5069290;28;20135;-40
2021/03/23 05:34:24;;;;;;;1.70;1.02;;;23.00;39.90;;;;;;5069849;28;20052;-40
2021/03/23 05:36:50;;;;;;;2.17;1.10;;;23.00;39.90;;;;;;5069477;28;20489;-39
2021/03/23 05:39:17;;;;;;;1.02;0.80;;;23.00;39.90;;;;;;5069962;28;20408;-40
2021/03/23 05:41:44;;;;;;;1.15;0.90;;;23.00;39.90;;;;;;5069623;28;20072;-39
2021/03/23 05:44:16;;;;;;;2.03;1.27;;;23.00;39.90;;;;;;5070934;28;20102;-40
2021/03/23 05:46:43;;;;;;;2.13;1.10;;;23.00;39.90;;;;;;5069910;28;20056;-39
2021/03/23 05:49:35;;;;;;;1.67;1.08;;;23.00;39.90;;;;;;5069625;28;20048;-39
2021/03/23 05:52:15;;;;;;;2.40;1.20;;;23.00;39.90;;;;;;5069948;28;20407;-39
2021/03/23 05:54:51;;;;;;;1.63;0.90;;;23.00;39.90;;;;;;5071108;28;20438;-39
2021/03/23 05:57:29;;;;;;;1.92;1.17;;;23.00;39.90;;;;;;5069822;28;20063;-39
2021/03/23 06:00:25;;;;;;;1.70;1.30;;;23.00;39.90;;;;;;5073246;28;20071;-39
2021/03/23 06:03:12;;;;;;;1.90;1.10;;;23.00;39.90;;;;;;5053158;28;20122;-40
2021/03/23 06:05:46;;;;;;;2.55;1.20;;;23.00;39.90;;;;;;5053311;28;20424;-39
2021/03/23 06:08:27;;;;;;;1.40;1.05;;;23.00;39.90;;;;;;5052158;28;20142;-39
2021/03/23 06:11:05;;;;;;;1.60;0.98;;;23.00;39.90;;;;;;5053195;28;20068;-40
2021/03/23 06:13:55;;;;;;;2.22;1.15;;;23.00;39.90;;;;;;5053153;28;20051;-40
2021/03/23 06:16:43;;;;;;;1.67;1.05;;;23.00;39.80;;;;;;5047195;28;20052;-40
2021/03/23 06:19:16;;;;;;;1.30;1.00;;;23.00;39.80;;;;;;5053129;28;20095;-39
2021/03/23 06:22:02;;;;;;;1.88;0.85;;;23.00;39.80;;;;;;5053214;28;20048;-40
2021/03/23 06:24:51;;;;;;;2.00;1.10;;;23.00;39.90;;;;;;5051645;28;20049;-39
2021/03/23 06:27:27;;;;;;;1.60;1.10;;;23.10;40.00;;;;;;5047564;28;20412;-40
2021/03/23 06:30:13;;;;;;;2.22;0.90;;;23.00;39.80;;;;;;5031659;28;20580;-39
2021/03/23 06:32:51;;;;;;;2.20;1.20;;;23.10;39.90;;;;;;5030241;28;20231;-39
2021/03/23 06:35:32;;;;;;;1.35;0.98;;;23.00;39.80;;;;;;5031860;28;20046;-40
2021/03/23 06:38:16;;;;;;;1.27;0.90;;;23.10;39.90;;;;;;5031580;28;20041;-40
2021/03/23 06:41:11;;;;;;;1.95;1.30;;;23.00;39.80;;;;;;5022234;28;20037;-41
2021/03/23 06:43:40;;;;;;;1.83;1.30;;;23.00;39.80;;;;;;5032680;28;20117;-42
2021/03/23 06:46:39;;;;;;;1.45;0.90;;;23.00;39.80;;;;;;5033546;28;20060;-40
2021/03/23 06:49:15;;;;;;;1.65;0.90;;;23.10;39.90;;;;;;5034226;28;20114;-39
2021/03/23 06:51:51;;;;;;;1.98;1.02;;;23.00;39.80;;;;;;5032297;28;20069;-39
2021/03/23 06:54:28;;;;;;;1.75;1.20;;;23.10;39.90;;;;;;5032324;28;20037;-39
2021/03/23 06:57:19;;;;;;;2.10;1.10;;;23.00;39.80;;;;;;5030974;28;20050;-40
2021/03/23 06:59:59;;;;;;;1.55;1.00;;;23.10;39.90;;;;;;5033496;28;20046;-39
2021/03/23 07:02:36;;;;;;;1.42;0.95;;;23.10;39.90;;;;;;5032146;28;20041;-40
2021/03/23 07:05:26;;;;;;;2.03;1.30;;;23.10;39.80;;;;;;5032293;28;20057;-40
2021/03/23 07:07:55;;;;;;;1.77;0.93;;;23.10;39.90;;;;;;5021682;28;20104;-42
2021/03/23 07:10:31;;;;;;;2.90;0.90;;;23.10;39.80;;;;;;5031347;28;20042;-39
2021/03/23 07:12:59;;;;;;;1.90;1.20;;;23.10;39.80;;;;;;5034461;28;20045;-41
2021/03/23 07:15:30;;;;;;;1.75;1.05;;;23.10;39.80;;;;;;5032162;28;20064;-42
2021/03/23 07:18:10;;;;;;;2.08;1.20;;;23.10;39.80;;;;;;5033365;28;20076;-41
2021/03/23 07:20:49;;;;;;;2.17;0.90;;;23.10;39.80;;;;;;5016493;28;20096;-39
2021/03/23 07:23:39;;;;;;;2.35;1.20;;;23.10;39.80;;;;;;5033114;28;20054;-42
2021/03/23 07:26:17;;;;;;;1.80;1.20;;;23.10;39.80;;;;;;5016787;28;20041;-41
2021/03/23 07:28:44;;;;;;;2.10;1.13;;;23.10;40.40;;;;;;5049594;28;20049;-44
2021/03/23 07:31:37;;;;;;;1.70;0.90;;;23.10;39.80;;;;;;5071477;28;20067;-42
2021/03/23 07:34:04;;;;;;;1.40;1.10;;;23.10;39.80;;;;;;5072206;28;20048;-41
2021/03/23 07:36:44;;;;;;;1.80;0.98;;;23.10;39.80;;;;;;5072665;28;20048;-40
2021/03/23 07:39:22;;;;;;;2.33;1.10;;;23.10;39.80;;;;;;5072245;28;20098;-41
2021/03/23 07:42:07;;;;;;;1.48;1.10;;;23.10;39.80;;;;;;5072240;28;20048;-43
2021/03/23 07:44:36;;;;;;;;;;;23.10;39.80;;;;;;5072756;28;20052;-41
2021/03/23 07:47:23;;;;;;;2.70;1.17;;;23.20;39.80;;;;;;5071447;28;19921;-40
2021/03/23 07:50:12;;;;;;;3.92;1.02;;;23.20;39.80;;;;;;5086476;28;20127;-40
2021/03/23 07:52:41;;;;;;;6.45;1.20;;;23.10;39.80;;;;;;5072285;28;20146;-41
2021/03/23 07:55:19;;;;;;;2.20;1.00;;;23.10;39.70;;;;;;5071168;28;20044;-42
2021/03/23 07:58:11;;;;;;;5.60;1.40;;;23.10;39.70;;;;;;5070839;28;20513;-40
2021/03/23 08:01:00;;;;;;;2.22;1.00;;;23.10;39.70;;;;;;5072056;28;20049;-41
2021/03/23 08:03:46;;;;;;;14.40;1.88;;;23.10;39.80;;;;;;5072065;28;20044;-41
2021/03/23 08:06:31;;;;;;;6.78;1.48;;;23.10;39.70;;;;;;5079848;28;20044;-40
2021/03/23 08:09:28;;;;;;;4.63;1.20;;;23.20;39.80;;;;;;5071412;28;20492;-40
2021/03/23 08:12:22;;;;;;;5.43;1.50;;;23.20;39.80;;;;;;5053391;28;20048;-40
2021/03/23 08:15:23;;;;;;;3.08;1.20;;;23.10;39.70;;;;;;5055312;28;20059;-40
2021/03/23 08:18:04;;;;;;;3.88;1.45;;;23.20;40.40;;;;;;5057679;28;20497;-40
2021/03/23 08:20:52;;;;;;;8.48;1.58;;;23.20;39.80;;;;;;5070930;28;20036;-40
2021/03/23 08:23:37;;;;;;;6.13;1.50;;;23.20;39.80;;;;;;5070347;28;20415;-41
2021/03/23 08:26:35;;;;;;;6.40;1.33;;;23.20;39.80;;;;;;5072879;28;20048;-40
2021/03/23 08:29:20;;;;;;;13.15;1.60;;;23.20;39.80;;;;;;5071727;28;20142;-41
2021/03/23 08:32:21;;;;;;;6.07;1.27;;;23.20;39.80;;;;;;5070211;28;20044;-41
2021/03/23 08:35:04;;;;;;;5.85;1.42;;;23.20;39.80;;;;;;5070384;28;20044;-41
2021/03/23 08:37:36;;;;;;;4.55;1.30;;;23.20;39.80;;;;;;5072915;28;20040;-41
2021/03/23 08:40:11;;;;;;;10.18;1.83;;;23.20;39.80;;;;;;5070365;28;20044;-40
2021/03/23 08:42:42;;;;;;;8.90;1.40;;;23.20;39.80;;;;;;5070437;28;20040;-39
2021/03/23 08:45:40;;;;;;;8.77;1.75;;;23.20;39.80;;;;;;5071620;28;20055;-40
2021/03/23 08:48:33;;;;;;;11.40;1.67;;;23.20;39.80;;;;;;5071749;28;20441;-40
2021/03/23 08:51:05;;;;;;;6.30;1.80;;;23.20;39.80;;;;;;5070597;28;20129;-40
2021/03/23 08:53:32;;;;;;;12.90;1.65;;;23.20;39.70;;;;;;5070322;28;20044;-45
2021/03/23 08:56:00;;;;;;;6.63;1.40;;;23.20;39.70;;;;;;5070369;28;20059;-41
2021/03/23 09:01:26;;;;;;;12.60;1.65;;;23.20;39.70;;;;;;5070686;28;20460;-41
2021/03/23 09:04:10;;;;;;;11.43;2.38;;;23.20;39.70;;;;;;5071050;28;20044;-40
2021/03/23 09:06:54;;;;;;;10.82;1.30;;;23.20;39.70;;;;;;5074405;28;20044;-40
2021/03/23 09:09:39;;;;;;;6.50;1.50;;;23.30;39.80;;;;;;5071733;28;20076;-40
2021/03/23 09:12:08;;;;;;;11.32;1.80;;;23.20;39.70;;;;;;5070223;28;20045;-40
2021/03/23 09:15:10;;;;;;;9.52;2.40;;;23.30;39.70;;;;;;5072504;28;20044;-40
2021/03/23 09:18:06;;;;;;;6.25;1.40;;;23.30;39.80;;;;;;5070171;28;20045;-42
2021/03/23 09:20:34;;;;;;;12.82;1.77;;;23.20;39.60;;;;;;5070988;28;20484;-40
2021/03/23 09:23:21;;;;;;;10.27;1.83;;;23.30;39.70;;;;;;5069821;28;20128;-40
2021/03/23 09:25:57;;;;;;;9.15;1.75;;;23.30;39.70;;;;;;5070094;28;20493;-39
2021/03/23 09:28:30;;;;;;;10.23;2.00;;;23.30;39.70;;;;;;5069760;28;20044;-39
2021/03/23 09:31:01;;;;;;;16.20;2.20;;;23.30;39.70;;;;;;5069462;28;20058;-40
2021/03/23 09:33:42;;;;;;;11.52;2.25;;;23.30;39.70;;;;;;5071770;28;20279;-40
2021/03/23 09:36:11;;;;;;;8.82;1.63;;;23.30;39.70;;;;;;5075078;28;20392;-39
2021/03/23 09:38:45;;;;;;;11.85;1.88;;;23.30;39.70;;;;;;5074551;28;20075;-42
2021/03/23 09:41:22;;;;;;;11.45;1.70;;;23.30;39.70;;;;;;5075148;28;20047;-39
2021/03/23 09:44:13;;;;;;;8.47;1.70;;;23.30;39.60;;;;;;5057080;28;20044;-39
2021/03/23 09:46:48;;;;;;;10.85;1.40;;;23.40;39.70;;;;;;5060508;28;20044;-39
2021/03/23 09:49:26;;;;;;;6.75;1.77;;;23.30;39.60;;;;;;5057385;28;20048;-39
2021/03/23 09:52:03;;;;;;;9.73;1.60;;;23.30;39.60;;;;;;5056681;28;20480;-42
2021/03/23 09:54:32;;;;;;;7.70;1.58;;;23.40;39.70;;;;;;5075959;28;20136;-40
2021/03/23 09:57:10;;;;;;;8.02;1.50;;;23.30;39.60;;;;;;5073996;28;20048;-40
2021/03/23 09:59:59;;;;;;;7.32;1.95;;;23.30;39.60;;;;;;5055954;28;20117;-41
2021/03/23 10:02:30;;;;;;;10.70;1.42;;;23.30;39.60;;;;;;5074963;28;20047;-40
2021/03/23 10:05:17;;;;;;;6.05;1.65;;;23.30;39.60;;;;;;5074214;28;20047;-41
2021/03/23 10:07:45;;;;;;;6.78;1.50;;;23.30;39.60;;;;;;5074244;28;20127;-42
2021/03/23 10:10:28;;;;;;;8.98;1.70;;;23.30;39.60;;;;;;5073328;28;20054;-41
2021/03/23 10:12:59;;;;;;;4.70;1.63;;;23.30;39.60;;;;;;5073090;28;20052;-42
2021/03/23 10:15:29;;;;;;;10.90;1.98;;;23.30;39.60;;;;;;5074696;28;20067;-40
2021/03/23 10:18:25;;;;;;;8.40;2.00;;;23.30;39.60;;;;;;5073104;28;20048;-41
2021/03/23 10:21:09;;;;;;;6.45;1.42;;;23.30;39.60;;;;;;5071856;28;20048;-40
2021/03/23 10:23:55;;;;;;;7.05;1.55;;;23.30;40.20;;;;;;5074161;28;20408;-40
2021/03/23 10:26:53;;;;;;;5.20;1.67;;;23.30;39.60;;;;;;5072138;28;20114;-39
2021/03/23 10:29:25;;;;;;;6.07;1.77;;;23.30;39.60;;;;;;5030809;28;20053;-41
2021/03/23 10:31:58;;;;;;;5.88;1.33;;;23.30;39.60;;;;;;5029265;28;20111;-41
2021/03/23 10:34:28;;;;;;;5.40;1.42;;;23.30;39.60;;;;;;5030658;28;20056;-41
2021/03/23 10:36:56;;;;;;;6.95;1.40;;;23.30;39.60;;;;;;5030233;28;20507;-41
2021/03/23 10:39:38;;;;;;;10.13;2.22;;;23.30;39.60;;;;;;5030400;28;20425;-41
2021/03/23 10:42:31;;;;;;;4.32;2.00;;;23.30;39.60;;;;;;5030304;28;20049;-41
2021/03/23 10:45:23;;;;;;;5.18;1.40;;;23.30;39.60;;;;;;5029231;28;20045;-40
2021/03/23 10:48:08;;;;;;;6.88;1.63;;;23.30;39.70;;;;;;5030169;28;20123;-40
2021/03/23 10:50:37;;;;;;;6.43;1.65;;;23.30;39.60;;;;;;5030016;28;20049;-41
2021/03/23 10:53:21;;;;;;;9.13;1.80;;;23.30;39.60;;;;;;5030421;28;20494;-42
2021/03/23 10:55:53;;;;;;;7.47;2.10;;;23.30;39.60;;;;;;5030011;28;20148;-41
2021/03/23 10:58:27;;;;;;;10.68;1.83;;;23.40;39.70;;;;;;5015137;28;20131;-41
2021/03/23 11:01:16;;;;;;;9.68;1.70;;;23.30;40.30;;;;;;5030896;28;20103;-41
2021/03/23 11:03:46;;;;;;;7.97;1.63;;;23.30;39.60;;;;;;5030046;28;20049;-40
2021/03/23 11:06:32;;;;;;;8.48;2.00;;;23.40;39.80;;;;;;5069722;28;20097;-40
2021/03/23 11:09:07;;;;;;;7.07;1.67;;;23.30;39.70;;;;;;5076406;28;20052;-42
2021/03/23 11:11:35;;;;;;;7.95;1.27;;;23.40;39.80;;;;;;5072261;28;20118;-43
2021/03/23 11:14:03;;;;;;;8.95;1.80;;;23.40;39.80;;;;;;5071876;28;20056;-42
2021/03/23 11:16:32;;;;;;;5.03;1.67;;;23.30;39.70;;;;;;5070473;28;20055;-41
2021/03/23 11:19:02;;;;;;;5.75;1.20;;;23.30;39.70;;;;;;5071999;28;20044;-43
2021/03/23 11:21:35;;;;;;;4.10;1.40;;;23.30;39.70;;;;;;5071727;28;20048;-41
2021/03/23 11:24:05;;;;;;;8.07;1.50;;;23.40;39.80;;;;;;5071795;28;20041;-41
2021/03/23 11:26:32;;;;;;;4.85;1.45;;;23.30;39.70;;;;;;5071967;28;20040;-43
2021/03/23 11:29:02;;;;;;;6.30;1.48;;;23.40;39.80;;;;;;5071975;28;20053;-40
2021/03/23 11:31:32;;;;;;;4.38;1.55;;;23.40;39.80;;;;;;5070867;28;20055;-43
2021/03/23 11:34:00;;;;;;;9.57;1.70;;;23.40;39.80;;;;;;5073230;28;20051;-40
2021/03/23 11:36:29;;;;;;;6.32;1.70;;;23.40;39.80;;;;;;5074114;28;20052;-40
2021/03/23 11:38:56;;;;;;;5.55;1.55;;;23.40;39.80;;;;;;5074048;28;20076;-40
2021/03/23 11:41:28;;;;;;;6.85;1.80;;;23.40;39.80;;;;;;5071374;28;20049;-40
2021/03/23 11:44:02;;;;;;;6.70;1.95;;;23.40;39.80;;;;;;5073718;28;20040;-40
2021/03/23 11:46:40;;;;;;;5.15;1.60;;;23.40;39.80;;;;;;5072402;28;20052;-40
2021/03/23 11:49:16;;;;;;;8.30;1.75;;;23.40;39.80;;;;;;5072410;28;20052;-40
2021/03/23 11:51:46;;;;;;;7.68;1.27;;;23.40;39.80;;;;;;5070992;28;20104;-40
2021/03/23 11:54:14;;;;;;;7.60;1.55;;;23.40;39.80;;;;;;5071443;28;20048;-40
2021/03/23 11:56:41;;;;;;;9.00;1.80;;;23.40;39.80;;;;;;5071051;28;20431;-40
2021/03/23 11:59:08;;;;;;;8.25;1.58;;;23.40;39.80;;;;;;5070748;28;20040;-40
2021/03/23 12:01:35;;;;;;;6.93;1.52;;;23.40;39.80;;;;;;5072510;28;20068;-41
2021/03/23 12:04:02;;;;;;;9.02;1.85;;;23.40;39.80;;;;;;5072294;28;20048;-41
2021/03/23 12:06:54;;;;;;;6.97;1.60;;;23.40;39.80;;;;;;5082094;28;20522;-41
2021/03/23 12:09:51;;;;;;;8.88;1.90;;;23.40;39.80;;;;;;5047667;28;20044;-41
2021/03/23 12:12:36;;;;;;;9.75;1.70;;;23.40;39.80;;;;;;5055425;28;20044;-41
2021/03/23 12:15:13;;;;;;;5.40;1.77;;;23.40;39.80;;;;;;5054612;28;20111;-42
2021/03/23 12:17:46;;;;;;;6.05;1.10;;;23.40;39.80;;;;;;5053760;28;20492;-41
2021/03/23 12:20:19;;;;;;;6.30;1.63;;;23.40;39.80;;;;;;5071670;28;20041;-40
2021/03/23 12:22:48;;;;;;;4.95;1.42;;;23.40;39.80;;;;;;5071600;28;20045;-41
2021/03/23 12:25:17;;;;;;;10.10;1.60;;;23.40;39.80;;;;;;5071969;28;20049;-40
2021/03/23 12:27:44;;;;;;;13.55;1.60;;;23.40;39.80;;;;;;5070379;28;20067;-42
2021/03/23 12:30:12;;;;;;;5.97;1.50;;;23.40;39.80;;;;;;5071911;28;20412;-40
2021/03/23 12:32:40;;;;;;;5.80;1.70;;;23.40;39.80;;;;;;5069970;28;20048;-41
2021/03/23 12:35:12;;;;;;;8.95;1.58;;;23.40;39.80;;;;;;5070435;28;20044;-40
2021/03/23 12:37:41;;;;;;;11.60;2.20;;;23.40;39.80;;;;;;5070571;28;20047;-40
2021/03/23 12:40:11;;;;;;;6.35;1.50;;;23.40;39.80;;;;;;5070512;28;20044;-41
2021/03/23 12:42:38;;;;;;;6.18;1.48;;;23.40;39.80;;;;;;5070488;28;20044;-40
2021/03/23 12:45:09;;;;;;;6.75;1.48;;;23.40;39.80;;;;;;5070692;28;20475;-40
2021/03/23 12:47:36;;;;;;;5.65;1.67;;;23.40;39.80;;;;;;5070402;28;20045;-40
2021/03/23 12:50:04;;;;;;;3.45;1.30;;;23.40;39.80;;;;;;5071849;28;20439;-40
2021/03/23 12:52:31;;;;;;;3.80;1.23;;;23.40;39.80;;;;;;5071895;28;20056;-41
2021/03/23 12:54:58;;;;;;;9.70;1.85;;;23.40;39.80;;;;;;5071742;28;20056;-40
2021/03/23 12:57:28;;;;;;;9.55;1.70;;;23.40;39.80;;;;;;5071628;28;20059;-41
2021/03/23 12:59:59;;;;;;;5.55;1.70;;;23.40;39.80;;;;;;5069942;28;20059;-40
2021/03/23 13:02:28;;;;;;;4.35;1.30;;;23.40;39.80;;;;;;5070067;28;20055;-40
2021/03/23 13:04:57;;;;;;;6.55;1.40;;;23.40;39.80;;;;;;5070492;28;20415;-40
2021/03/23 13:07:35;;;;;;;5.53;1.52;;;23.40;39.80;;;;;;5076252;28;20048;-40
2021/03/23 13:10:27;;;;;;;5.60;1.90;;;23.40;39.80;;;;;;5076890;28;20088;-40
2021/03/23 13:12:56;;;;;;;5.85;1.70;;;23.40;39.80;;;;;;5072602;28;20466;-40
2021/03/23 13:15:24;;;;;;;8.57;1.40;;;23.40;39.80;;;;;;5078286;28;20423;-40
2021/03/23 13:17:51;;;;;;;6.28;1.58;;;23.40;39.80;;;;;;5076719;28;20052;-40
2021/03/23 13:20:19;;;;;;;6.20;1.60;;;23.40;39.80;;;;;;5076652;28;20090;-40
2021/03/23 13:22:58;;;;;;;8.15;1.60;;;23.40;39.80;;;;;;5076803;28;20052;-41